createdAt,value
2018-06-02T00:01:47.256Z,31.00
2018-06-02T00:04:14.855Z,30.73
2018-06-02T00:06:42.467Z,28.33
2018-06-02T00:09:10.822Z,27.70
2018-06-02T00:11:38.442Z,28.27
2018-06-02T00:14:06.221Z,28.10
2018-06-02T00:16:34.582Z,27.30
2018-06-02T00:19:02.145Z,28.87
2018-06-02T00:21:29.749Z,28.47
2018-06-02T00:23:57.367Z,28.20
2018-06-02T00:26:25.750Z,26.97
2018-06-02T00:28:53.377Z,28.07
2018-06-02T00:31:20.984Z,27.67
2018-06-02T00:33:49.358Z,28.50
2018-06-02T00:36:17.702Z,28.07
2018-06-02T00:38:45.285Z,28.03
2018-06-02T00:41:12.971Z,28.53
2018-06-02T00:43:41.322Z,28.03
2018-06-02T00:46:08.905Z,27.93
2018-06-02T00:48:36.489Z,29.13
2018-06-02T00:51:04.872Z,29.30
2018-06-02T00:53:32.472Z,28.97
2018-06-02T00:56:00.080Z,30.37
2018-06-02T00:58:27.671Z,29.43
2018-06-02T01:00:55.289Z,29.07
2018-06-02T01:03:22.885Z,30.33
2018-06-02T01:05:51.263Z,30.37
2018-06-02T01:08:18.835Z,30.73
2018-06-02T01:10:47.183Z,30.00
2018-06-02T01:13:14.779Z,31.87
2018-06-02T01:15:42.474Z,32.23
2018-06-02T01:18:10.061Z,32.73
2018-06-02T01:20:38.400Z,31.33
2018-06-02T01:23:06.010Z,30.93
2018-06-02T01:25:33.602Z,31.63
2018-06-02T01:28:01.204Z,32.43
2018-06-02T01:30:29.554Z,32.00
2018-06-02T01:32:57.136Z,34.60
2018-06-02T01:35:24.733Z,34.33
2018-06-02T01:37:52.319Z,35.00
2018-06-02T01:40:19.909Z,34.40
2018-06-02T01:42:47.498Z,36.23
2018-06-02T01:45:15.088Z,36.43
2018-06-02T01:47:42.714Z,36.97
2018-06-02T01:50:10.310Z,36.77
2018-06-02T01:52:39.580Z,36.47
2018-06-02T01:55:07.205Z,37.83
2018-06-02T01:57:34.812Z,37.57
2018-06-02T02:00:02.414Z,37.60
2018-06-02T02:02:30.058Z,37.07
2018-06-02T02:04:58.259Z,38.47
2018-06-02T02:07:26.611Z,36.63
2018-06-02T02:09:54.212Z,37.93
2018-06-02T02:12:21.842Z,37.07
2018-06-02T02:14:50.239Z,37.20
2018-06-02T02:17:18.596Z,37.03
2018-06-02T02:19:46.202Z,35.63
2018-06-02T02:22:14.572Z,36.90
2018-06-02T02:24:42.158Z,36.47
2018-06-02T02:27:09.808Z,35.50
2018-06-02T02:29:38.213Z,35.10
2018-06-02T02:32:05.854Z,35.67
2018-06-02T02:34:33.477Z,35.47
2018-06-02T02:37:01.075Z,37.03
2018-06-02T02:39:29.423Z,36.87
2018-06-02T02:41:57.023Z,36.67
2018-06-02T02:44:24.686Z,36.37
2018-06-02T02:46:53.051Z,36.20
2018-06-02T02:49:20.659Z,35.53
2018-06-02T02:51:49.054Z,33.73
2018-06-02T02:54:16.669Z,34.90
2018-06-02T02:56:44.304Z,34.23
2018-06-02T02:59:11.924Z,35.10
2018-06-02T03:01:40.333Z,33.90
2018-06-02T03:04:08.701Z,35.43
2018-06-02T03:06:37.068Z,34.07
2018-06-02T03:09:04.692Z,33.23
2018-06-02T03:11:32.326Z,36.30
2018-06-02T03:13:59.916Z,35.57
2018-06-02T03:16:27.525Z,35.53
2018-06-02T03:18:55.131Z,36.83
2018-06-02T03:21:22.717Z,36.90
2018-06-02T03:23:50.346Z,35.00
2018-06-02T03:26:17.950Z,36.07
2018-06-02T03:28:45.577Z,35.57
2018-06-02T03:31:13.918Z,34.87
2018-06-02T03:33:41.547Z,36.33
2018-06-02T03:36:09.147Z,35.80
2018-06-02T03:38:36.745Z,36.43
2018-06-02T03:41:05.121Z,34.83
2018-06-02T03:43:33.565Z,35.50
2018-06-02T03:46:01.172Z,34.97
2018-06-02T03:48:29.543Z,35.97
2018-06-02T03:50:57.917Z,36.13
2018-06-02T03:53:25.516Z,37.90
2018-06-02T03:55:53.940Z,38.00
2018-06-02T03:58:21.556Z,38.13
2018-06-02T04:00:49.138Z,38.07
2018-06-02T04:03:17.518Z,36.50
2018-06-02T04:05:45.917Z,37.97
2018-06-02T04:08:13.508Z,37.97
2018-06-02T04:10:41.105Z,38.40
2018-06-02T04:13:08.706Z,37.63
2018-06-02T04:15:36.281Z,38.80
2018-06-02T04:18:03.941Z,39.40
2018-06-02T04:20:31.529Z,39.50
2018-06-02T04:22:59.191Z,38.57
2018-06-02T04:25:26.799Z,39.93
2018-06-02T04:27:54.403Z,39.53
2018-06-02T04:30:21.999Z,37.17
2018-06-02T04:32:49.611Z,39.37
2018-06-02T04:35:17.995Z,39.77
2018-06-02T04:37:46.426Z,39.07
2018-06-02T04:40:14.066Z,39.73
2018-06-02T04:42:41.644Z,40.50
2018-06-02T04:45:09.259Z,40.13
2018-06-02T04:47:37.683Z,39.77
2018-06-02T04:50:05.303Z,41.87
2018-06-02T04:52:32.897Z,42.00
2018-06-02T04:55:01.304Z,42.77
2018-06-02T04:57:28.947Z,41.93
2018-06-02T04:59:57.343Z,41.67
2018-06-02T05:02:24.933Z,43.63
2018-06-02T05:04:52.535Z,43.17
2018-06-02T05:07:20.127Z,45.20
2018-06-02T05:09:48.492Z,43.70
2018-06-02T05:12:16.076Z,42.70
2018-06-02T05:14:44.434Z,44.27
2018-06-02T05:17:12.031Z,45.23
2018-06-02T05:19:39.638Z,43.10
2018-06-02T05:22:07.239Z,44.43
2018-06-02T05:24:34.850Z,41.57
2018-06-02T05:27:02.426Z,42.17
2018-06-02T05:29:30.053Z,41.73
2018-06-02T05:31:58.396Z,39.83
2018-06-02T05:34:25.974Z,38.43
2018-06-02T05:36:53.549Z,37.50
2018-06-02T05:39:21.110Z,39.27
2018-06-02T05:41:48.733Z,37.47
2018-06-02T05:44:16.321Z,38.73
2018-06-02T05:46:43.918Z,37.47
2018-06-02T05:49:12.280Z,38.03
2018-06-02T05:51:39.869Z,37.37
2018-06-02T05:54:08.280Z,37.53
2018-06-02T05:56:35.875Z,36.83
2018-06-02T05:59:03.464Z,39.07
2018-06-02T06:01:31.066Z,40.30
2018-06-02T06:03:58.673Z,39.60
2018-06-02T06:06:26.294Z,39.93
2018-06-02T06:08:54.679Z,38.37
2018-06-02T06:11:22.250Z,38.20
2018-06-02T06:13:49.868Z,38.20
2018-06-02T06:16:17.450Z,37.77
2018-06-02T06:18:45.065Z,38.97
2018-06-02T06:21:12.668Z,38.00
2018-06-02T06:23:40.332Z,37.07
2018-06-02T06:26:07.936Z,36.23
2018-06-02T06:28:36.155Z,36.47
2018-06-02T06:31:03.782Z,36.40
2018-06-02T06:33:32.147Z,35.63
2018-06-02T06:35:59.724Z,34.80
2018-06-02T06:38:28.092Z,36.37
2018-06-02T06:40:55.676Z,34.80
2018-06-02T06:43:23.269Z,35.63
2018-06-02T06:45:51.624Z,35.80
2018-06-02T06:48:19.970Z,37.63
2018-06-02T06:50:47.584Z,37.07
2018-06-02T06:53:15.168Z,39.10
2018-06-02T06:55:43.523Z,38.47
2018-06-02T06:58:11.133Z,39.93
2018-06-02T07:00:39.678Z,39.60
2018-06-02T07:03:07.279Z,40.40
2018-06-02T07:05:34.873Z,40.67
2018-06-02T07:08:02.598Z,40.70
2018-06-02T07:10:30.197Z,42.20
2018-06-02T07:12:57.783Z,41.93
2018-06-02T07:15:26.160Z,42.33
2018-06-02T07:17:53.784Z,42.57
2018-06-02T07:20:21.368Z,43.63
2018-06-02T07:22:48.959Z,43.67
2018-06-02T07:25:17.323Z,45.17
2018-06-02T07:27:44.912Z,44.37
2018-06-02T07:30:13.306Z,44.60
2018-06-02T07:32:40.906Z,46.47
2018-06-02T07:35:08.550Z,44.63
2018-06-02T07:37:36.144Z,44.20
2018-06-02T07:40:03.787Z,46.40
2018-06-02T07:42:31.392Z,46.80
2018-06-02T07:44:58.995Z,44.77
2018-06-02T07:47:27.355Z,46.47
2018-06-02T07:49:55.037Z,47.37
2018-06-02T07:52:22.599Z,46.87
2018-06-02T07:54:50.181Z,45.47
2018-06-02T07:57:18.578Z,47.43
2018-06-02T07:59:46.167Z,46.90
2018-06-02T08:02:13.771Z,46.63
2018-06-02T08:04:41.414Z,45.70
2018-06-02T08:07:09.004Z,45.30
2018-06-02T08:09:36.644Z,42.87
2018-06-02T08:12:04.896Z,43.53
2018-06-02T08:14:32.573Z,42.17
2018-06-02T08:17:00.167Z,42.97
2018-06-02T08:19:27.779Z,44.07
2018-06-02T08:21:55.388Z,42.13
2018-06-02T08:24:23.003Z,41.30
2018-06-02T08:26:50.595Z,41.47
2018-06-02T08:29:18.205Z,39.77
2018-06-02T08:31:45.839Z,40.27
2018-06-02T08:34:13.728Z,40.37
2018-06-02T08:36:41.356Z,41.10
2018-06-02T08:39:09.036Z,42.17
2018-06-02T08:41:36.633Z,40.63
2018-06-02T08:44:04.215Z,39.53
2018-06-02T08:46:32.717Z,39.57
2018-06-02T08:49:01.120Z,35.70
2018-06-02T08:51:28.707Z,29.60
2018-06-02T08:53:56.370Z,25.77
2018-06-02T08:56:24.013Z,24.73
2018-06-02T08:58:53.344Z,25.17
2018-06-02T09:01:21.050Z,24.43
2018-06-02T09:03:49.444Z,23.33
2018-06-02T09:06:18.125Z,23.17
2018-06-02T09:08:45.976Z,23.23
2018-06-02T09:11:13.596Z,24.37
2018-06-02T09:13:41.210Z,26.67
2018-06-02T09:16:09.723Z,27.30
2018-06-02T09:18:38.123Z,27.83
2018-06-02T09:21:06.525Z,28.07
2018-06-02T09:23:34.329Z,24.53
2018-06-02T09:26:01.949Z,24.90
2018-06-02T09:28:29.599Z,25.70
2018-06-02T09:30:58.727Z,24.40
2018-06-02T09:33:26.424Z,25.73
2018-06-02T09:35:54.046Z,24.40
2018-06-02T09:38:21.667Z,25.50
2018-06-02T09:40:49.354Z,22.90
2018-06-02T09:43:16.999Z,22.13
2018-06-02T09:45:44.626Z,20.70
2018-06-02T09:48:12.299Z,21.10
2018-06-02T09:50:40.782Z,20.20
2018-06-02T09:53:11.252Z,21.03
2018-06-02T09:55:40.088Z,19.37
2018-06-02T09:58:07.829Z,20.80
2018-06-02T10:00:37.393Z,20.40
2018-06-02T10:03:05.153Z,20.27
2018-06-02T10:05:36.517Z,19.63
2018-06-02T10:08:04.175Z,19.13
2018-06-02T10:10:32.617Z,19.33
2018-06-02T10:13:01.128Z,18.13
2018-06-02T10:15:29.687Z,18.33
2018-06-02T10:17:58.495Z,17.43
2018-06-02T10:20:28.065Z,17.57
2018-06-02T10:22:56.108Z,18.67
2018-06-02T10:25:24.484Z,16.63
2018-06-02T10:27:54.896Z,16.53
2018-06-02T10:32:59.076Z,18.20
2018-06-02T10:35:31.739Z,16.37
2018-06-02T10:38:09.707Z,17.53
2018-06-02T10:40:45.281Z,15.97
2018-06-02T10:46:09.829Z,16.33
2018-06-02T10:55:41.143Z,16.27
2018-06-02T10:58:15.571Z,15.43
2018-06-02T11:03:19.972Z,16.27
2018-06-02T11:15:39.634Z,14.73
2018-06-02T11:22:26.379Z,14.90
2018-06-02T11:24:56.333Z,13.57
2018-06-02T11:27:26.258Z,13.73
2018-06-02T11:32:38.239Z,13.60
2018-06-02T11:35:06.806Z,12.27
2018-06-02T11:37:37.626Z,11.70
2018-06-02T11:40:06.141Z,11.93
2018-06-02T11:42:36.852Z,11.83
2018-06-02T11:47:38.289Z,11.60
2018-06-02T11:50:05.953Z,12.23
2018-06-02T11:52:33.556Z,11.40
2018-06-02T11:55:01.170Z,11.73
2018-06-02T11:57:30.676Z,11.83
2018-06-02T11:59:58.642Z,11.67
2018-06-02T12:02:27.175Z,11.17
2018-06-02T12:04:57.614Z,10.67
2018-06-02T12:07:26.480Z,11.77
2018-06-02T12:09:54.144Z,11.67
2018-06-02T12:12:21.803Z,11.40
2018-06-02T12:14:49.562Z,10.17
2018-06-02T12:17:18.124Z,10.40
2018-06-02T12:19:47.014Z,11.07
2018-06-02T12:22:15.419Z,10.80
2018-06-02T12:24:43.136Z,9.80
2018-06-02T12:27:12.473Z,10.43
2018-06-02T12:29:40.909Z,8.67
2018-06-02T12:32:08.670Z,9.00
2018-06-02T12:34:37.280Z,8.90
2018-06-02T12:37:04.992Z,9.50
2018-06-02T12:39:35.020Z,9.37
2018-06-02T12:42:02.831Z,9.13
2018-06-02T12:44:31.097Z,9.67
2018-06-02T12:46:58.829Z,8.33
2018-06-02T12:49:26.753Z,8.33
2018-06-02T12:51:55.652Z,7.60
2018-06-02T12:54:24.814Z,8.30
2018-06-02T12:56:52.481Z,7.80
2018-06-02T12:59:20.323Z,7.90
2018-06-02T13:01:48.757Z,8.40
2018-06-02T13:04:16.532Z,8.43
2018-06-02T13:06:44.792Z,9.57
2018-06-02T13:09:13.245Z,8.43
2018-06-02T13:11:41.695Z,8.20
2018-06-02T13:14:09.377Z,8.10
2018-06-02T13:16:37.124Z,7.10
2018-06-02T13:19:05.503Z,7.90
2018-06-02T13:21:33.924Z,7.40
2018-06-02T13:24:02.902Z,8.00
2018-06-02T13:26:31.308Z,8.20
2018-06-02T13:28:59.018Z,7.90
2018-06-02T13:31:27.518Z,8.27
2018-06-02T13:33:59.765Z,8.20
2018-06-02T13:36:27.477Z,8.50
2018-06-02T13:38:55.223Z,8.40
2018-06-02T13:41:22.979Z,9.47
2018-06-02T13:43:54.729Z,11.90
2018-06-02T13:46:22.452Z,11.13
2018-06-02T13:48:52.709Z,10.93
2018-06-02T13:51:21.154Z,11.63
2018-06-02T13:53:49.869Z,11.87
2018-06-02T13:56:17.698Z,11.17
2018-06-02T13:58:45.420Z,11.10
2018-06-02T14:01:13.866Z,11.70
2018-06-02T14:03:47.397Z,12.00
2018-06-02T14:06:18.664Z,12.33
2018-06-02T14:08:46.380Z,11.87
2018-06-02T14:11:14.071Z,12.70
2018-06-02T14:13:41.768Z,14.33
2018-06-02T14:16:09.437Z,12.63
2018-06-02T14:18:37.309Z,12.17
2018-06-02T14:21:07.580Z,11.13
2018-06-02T14:23:35.245Z,11.30
2018-06-02T14:26:03.837Z,12.47
2018-06-02T14:28:31.599Z,12.30
2018-06-02T14:31:01.767Z,13.10
2018-06-02T14:33:30.255Z,12.93
2018-06-02T14:35:57.911Z,12.93
2018-06-02T14:38:27.583Z,12.13
2018-06-02T14:40:56.048Z,11.80
2018-06-02T14:43:23.735Z,12.00
2018-06-02T14:45:51.375Z,11.70
2018-06-02T14:48:20.752Z,12.20
2018-06-02T14:50:49.483Z,13.37
2018-06-02T14:53:17.730Z,13.07
2018-06-02T14:55:45.594Z,12.43
2018-06-02T14:58:14.201Z,13.57
2018-06-02T15:00:41.866Z,13.37
2018-06-02T15:03:09.569Z,13.23
2018-06-02T15:05:37.274Z,13.60
2018-06-02T15:08:05.111Z,13.30
2018-06-02T15:10:32.951Z,13.10
2018-06-02T15:13:00.729Z,13.03
2018-06-02T15:15:28.943Z,14.03
2018-06-02T15:17:56.835Z,12.90
2018-06-02T15:20:24.582Z,13.90
2018-06-02T15:22:56.889Z,14.07
2018-06-02T15:25:24.627Z,14.20
2018-06-02T15:27:52.220Z,13.80
2018-06-02T15:30:19.813Z,14.27
2018-06-02T15:32:47.432Z,14.43
2018-06-02T15:35:15.077Z,14.40
2018-06-02T15:37:42.656Z,14.83
2018-06-02T15:40:10.264Z,13.93
2018-06-02T15:42:37.894Z,14.40
2018-06-02T15:45:05.552Z,14.57
2018-06-02T15:47:33.153Z,14.77
2018-06-02T15:50:01.531Z,15.70
2018-06-02T15:52:29.127Z,14.87
2018-06-02T15:54:56.748Z,13.27
2018-06-02T15:57:24.344Z,14.13
2018-06-02T15:59:51.960Z,14.43
2018-06-02T16:02:19.556Z,13.50
2018-06-02T16:04:47.282Z,14.47
2018-06-02T16:07:14.889Z,13.17
2018-06-02T16:09:43.317Z,15.80
2018-06-02T16:12:11.497Z,14.33
2018-06-02T16:14:39.072Z,14.47
2018-06-02T16:17:06.652Z,14.60
2018-06-02T16:19:34.248Z,14.87
2018-06-02T16:22:02.686Z,14.60
2018-06-02T16:24:30.290Z,13.67
2018-06-02T16:26:57.886Z,13.77
2018-06-02T16:29:26.348Z,15.60
2018-06-02T16:31:53.942Z,13.00
2018-06-02T16:34:21.554Z,13.17
2018-06-02T16:36:49.168Z,13.37
2018-06-02T16:39:16.788Z,14.83
2018-06-02T16:41:44.442Z,13.70
2018-06-02T16:44:12.018Z,14.27
2018-06-02T16:46:39.598Z,14.40
2018-06-02T16:49:07.185Z,14.63
2018-06-02T16:51:35.525Z,15.40
2018-06-02T16:54:03.117Z,15.20
2018-06-02T16:56:30.699Z,16.03
2018-06-02T16:58:58.279Z,16.33
2018-06-02T17:01:25.871Z,16.67
2018-06-02T17:03:53.447Z,17.43
2018-06-02T17:06:21.070Z,18.63
2018-06-02T17:08:48.628Z,19.40
2018-06-02T17:11:16.195Z,20.10
2018-06-02T17:13:43.776Z,19.03
2018-06-02T17:16:11.412Z,19.63
2018-06-02T17:18:39.786Z,20.70
2018-06-02T17:21:08.118Z,20.97
2018-06-02T17:23:35.687Z,19.67
2018-06-02T17:26:03.289Z,18.80
2018-06-02T17:28:30.886Z,17.43
2018-06-02T17:30:58.477Z,18.43
2018-06-02T17:33:26.059Z,18.00
2018-06-02T17:35:53.638Z,18.40
2018-06-02T17:38:21.205Z,18.27
2018-06-02T17:40:48.801Z,17.07
2018-06-02T17:43:17.160Z,17.80
2018-06-02T17:45:44.743Z,18.40
2018-06-02T17:48:13.109Z,18.17
2018-06-02T17:50:41.470Z,19.17
2018-06-02T17:53:09.624Z,18.67
2018-06-02T17:55:37.224Z,18.77
2018-06-02T17:58:04.854Z,19.03
2018-06-02T18:00:32.424Z,19.93
2018-06-02T18:03:00.032Z,19.03
2018-06-02T18:05:27.712Z,20.30
2018-06-02T18:07:56.050Z,22.43
2018-06-02T18:10:23.631Z,20.40
2018-06-02T18:12:51.923Z,20.07
2018-06-02T18:15:19.521Z,23.23
2018-06-02T18:17:47.114Z,21.50
2018-06-02T18:20:14.695Z,20.63
2018-06-02T18:22:42.323Z,23.50
2018-06-02T18:25:09.907Z,27.57
2018-06-02T18:27:37.479Z,23.00
2018-06-02T18:30:05.059Z,20.73
2018-06-02T18:32:32.686Z,21.43
2018-06-02T18:35:00.285Z,22.43
2018-06-02T18:37:27.912Z,22.00
2018-06-02T18:39:55.510Z,22.60
2018-06-02T18:42:23.105Z,23.23
2018-06-02T18:44:50.701Z,28.80
2018-06-02T18:47:18.302Z,23.17
2018-06-02T18:49:45.934Z,22.37
2018-06-02T18:52:13.514Z,23.70
2018-06-02T18:54:41.103Z,24.10
2018-06-02T18:57:08.725Z,22.93
2018-06-02T18:59:36.325Z,24.07
2018-06-02T19:02:03.916Z,26.80
2018-06-02T19:04:31.510Z,26.90
2018-06-02T19:06:59.884Z,25.90
2018-06-02T19:09:27.465Z,26.80
2018-06-02T19:11:55.808Z,26.97
2018-06-02T19:14:23.418Z,28.13
2018-06-02T19:16:51.029Z,28.53
2018-06-02T19:19:18.607Z,27.53
2018-06-02T19:21:46.191Z,28.70
2018-06-02T19:24:13.817Z,28.23
2018-06-02T19:26:41.395Z,28.33
2018-06-02T19:29:09.018Z,28.30
2018-06-02T19:31:36.598Z,27.60
2018-06-02T19:34:04.227Z,27.00
2018-06-02T19:36:32.568Z,28.17
2018-06-02T19:39:00.142Z,28.33
2018-06-02T19:41:28.626Z,28.23
2018-06-02T19:43:56.243Z,29.17
2018-06-02T19:46:23.825Z,29.10
2018-06-02T19:48:51.433Z,28.70
2018-06-02T19:51:19.047Z,30.77
2018-06-02T19:53:47.367Z,30.73
2018-06-02T19:56:14.955Z,29.53
2018-06-02T19:58:42.623Z,30.60
2018-06-02T20:01:10.998Z,30.30
2018-06-02T20:03:38.588Z,31.83
2018-06-02T20:06:06.923Z,31.13
2018-06-02T20:08:35.274Z,32.90
2018-06-02T20:11:02.865Z,31.53
2018-06-02T20:13:30.495Z,32.97
2018-06-02T20:15:58.104Z,32.97
2018-06-02T20:18:25.683Z,33.33
2018-06-02T20:20:53.256Z,35.13
2018-06-02T20:23:20.838Z,34.97
2018-06-02T20:25:48.445Z,35.27
2018-06-02T20:28:16.091Z,34.67
2018-06-02T20:30:43.659Z,33.60
2018-06-02T20:33:11.240Z,34.57
2018-06-02T20:35:38.810Z,35.33
2018-06-02T20:38:06.416Z,33.43
2018-06-02T20:40:34.052Z,37.17
2018-06-02T20:43:01.662Z,35.43
2018-06-02T20:45:30.016Z,34.00
2018-06-02T20:47:58.561Z,34.67
2018-06-02T20:50:26.294Z,35.80
2018-06-02T20:52:53.886Z,36.07
2018-06-02T20:55:21.472Z,35.37
2018-06-02T20:57:49.123Z,34.40
2018-06-02T21:00:17.512Z,35.33
2018-06-02T21:02:45.092Z,34.30
2018-06-02T21:05:12.697Z,35.87
2018-06-02T21:07:40.319Z,37.17
2018-06-02T21:10:07.897Z,36.87
2018-06-02T21:12:35.561Z,36.90
2018-06-02T21:15:03.161Z,38.73
2018-06-02T21:17:31.672Z,39.27
2018-06-02T21:19:59.246Z,37.90
2018-06-02T21:22:26.834Z,43.43
2018-06-02T21:24:54.420Z,40.50
2018-06-02T21:27:22.010Z,38.90
2018-06-02T21:29:50.390Z,39.53
2018-06-02T21:32:17.974Z,39.90
2018-06-02T21:34:45.570Z,40.10
2018-06-02T21:37:13.157Z,37.53
2018-06-02T21:39:40.739Z,37.80
2018-06-02T21:42:08.350Z,38.90
2018-06-02T21:44:35.942Z,40.00
2018-06-02T21:47:03.525Z,41.57
2018-06-02T21:49:31.137Z,44.70
2018-06-02T21:51:59.494Z,44.07
2018-06-02T21:54:27.849Z,44.53
2018-06-02T21:56:55.453Z,45.57
2018-06-02T21:59:23.849Z,43.27
2018-06-02T22:01:52.238Z,42.77
2018-06-02T22:04:19.843Z,44.00
2018-06-02T22:06:48.492Z,45.47
2018-06-02T22:09:16.175Z,44.70
2018-06-02T22:11:43.742Z,44.43
2018-06-02T22:14:11.491Z,36.87
2018-06-02T22:16:39.088Z,38.57
2018-06-02T22:19:07.703Z,35.77
2018-06-02T22:21:35.376Z,41.97
2018-06-02T22:25:12.040Z,51.83
2018-06-02T22:27:40.962Z,47.90
2018-06-02T22:30:09.778Z,46.17
2018-06-02T22:32:38.583Z,43.00
2018-06-02T22:35:07.405Z,39.50
2018-06-02T22:37:37.291Z,37.43
2018-06-02T22:40:06.147Z,35.77
2018-06-02T22:42:34.892Z,35.70
2018-06-02T22:45:03.751Z,39.60
2018-06-02T22:47:33.368Z,39.53
2018-06-02T22:50:02.180Z,38.73
2018-06-02T22:52:31.933Z,37.73
2018-06-02T22:55:00.860Z,38.23
2018-06-02T22:57:31.633Z,38.30
2018-06-02T23:00:00.612Z,37.43
2018-06-02T23:02:29.358Z,36.67
2018-06-02T23:04:58.204Z,36.20
2018-06-02T23:07:27.176Z,39.13
2018-06-02T23:09:56.014Z,38.07
2018-06-02T23:12:26.040Z,39.03
2018-06-02T23:14:54.500Z,41.27
2018-06-02T23:17:23.270Z,38.10
2018-06-02T23:19:52.083Z,38.47
2018-06-02T23:22:30.772Z,38.60
2018-06-02T23:24:59.607Z,39.00
2018-06-02T23:27:28.430Z,40.93
2018-06-02T23:29:57.263Z,41.10
2018-06-02T23:32:26.059Z,42.93
2018-06-02T23:34:54.887Z,41.37
2018-06-02T23:37:23.722Z,40.40
2018-06-02T23:39:52.513Z,39.63
2018-06-02T23:42:21.490Z,41.40
2018-06-02T23:44:50.363Z,40.07
2018-06-02T23:47:19.137Z,40.57
2018-06-02T23:49:47.937Z,41.13
2018-06-02T23:52:16.714Z,42.40
2018-06-02T23:54:45.576Z,43.87
2018-06-02T23:57:14.393Z,44.20
2018-06-02T23:59:43.193Z,42.27
